Terminal Aerodrome Forecast
Issued by NWS

Home | Current Version | Previous Version | Graphics & Text | Print | Product List | Glossary On
Versions: 1 2 3 4 5 6 7 8 9 10 11 12 13 14 15 16
000
FTUS43 KICT 311700
TAFSLN
TAF
KSLN 311727Z 3118/0118 18021G30KT P6SM FEW050 SCT120
     FM010100 18015G22KT P6SM VCTS SCT050CB BKN100
     FM010500 32013KT P6SM VCTS SCT040CB BKN080
     FM010800 05009KT 5SM BR SCT040 BKN080
     FM011600 36012KT P6SM BKN120=

USA.gov is the U.S. government's official web portal to all federal, state and local government web resources and services.